Terminal Aerodrome Forecast
Issued by NWS Blacksburg, VA

Home | Current Version | Previous Version | Text Only | Print | Product List | Glossary On
Versions: 1 2 3 4 5 6 7 8 9 10 11 12 13 14 15 16 17 18 19 20 21 22 23 24 25 26 27 28 29 30 31 32 33 34 35
000
FTUS41 KRNK 011140
TAFLYH
TAF
KLYH 011140Z 0112/0212 00000KT P6SM OVC019
      TEMPO 0112/0113 4SM BR
     FM011800 11005KT P6SM BKN035
     FM020800 00000KT 3SM BR OVC015=

USA.gov is the U.S. government's official web portal to all federal, state and local government web resources and services.